sensor_id;sensor_type;location;lat;lon;timestamp;temperature;humidity
12568;DHT22;6349;50.904;6.136;2023-02-22T00:00:12;6.10;99.90
12568;DHT22;6349;50.904;6.136;2023-02-22T00:02:24;6.10;99.90
12568;DHT22;6349;50.904;6.136;2023-02-22T00:04:27;6.00;99.90
12568;DHT22;6349;50.904;6.136;2023-02-22T00:06:29;6.10;99.90
12568;DHT22;6349;50.904;6.136;2023-02-22T00:08:34;6.10;99.90
12568;DHT22;6349;50.904;6.136;2023-02-22T00:10:36;6.00;99.90
12568;DHT22;6349;50.904;6.136;2023-02-22T00:12:40;6.10;99.90
12568;DHT22;6349;50.904;6.136;2023-02-22T00:14:43;6.00;99.90
12568;DHT22;6349;50.904;6.136;2023-02-22T00:16:43;6.00;99.90
12568;DHT22;6349;50.904;6.136;2023-02-22T00:18:46;6.00;99.90
12568;DHT22;6349;50.904;6.136;2023-02-22T00:20:47;6.10;99.90
12568;DHT22;6349;50.904;6.136;2023-02-22T00:22:50;6.00;99.90
12568;DHT22;6349;50.904;6.136;2023-02-22T00:24:52;6.00;99.90
12568;DHT22;6349;50.904;6.136;2023-02-22T00:26:56;5.90;99.90
12568;DHT22;6349;50.904;6.136;2023-02-22T00:28:57;5.90;99.90
12568;DHT22;6349;50.904;6.136;2023-02-22T00:30:59;5.90;99.90
12568;DHT22;6349;50.904;6.136;2023-02-22T00:33:01;5.90;99.90
12568;DHT22;6349;50.904;6.136;2023-02-22T00:35:02;5.90;99.90
12568;DHT22;6349;50.904;6.136;2023-02-22T00:37:09;5.90;99.90
12568;DHT22;6349;50.904;6.136;2023-02-22T00:39:11;5.80;99.90
12568;DHT22;6349;50.904;6.136;2023-02-22T00:41:12;5.80;99.90
12568;DHT22;6349;50.904;6.136;2023-02-22T00:43:14;5.70;99.90
12568;DHT22;6349;50.904;6.136;2023-02-22T00:45:18;5.70;99.90
12568;DHT22;6349;50.904;6.136;2023-02-22T00:47:21;5.70;99.90
12568;DHT22;6349;50.904;6.136;2023-02-22T00:49:22;5.70;99.90
12568;DHT22;6349;50.904;6.136;2023-02-22T00:51:25;5.70;99.90
12568;DHT22;6349;50.904;6.136;2023-02-22T00:53:26;5.70;99.90
12568;DHT22;6349;50.904;6.136;2023-02-22T00:55:30;5.70;99.90
12568;DHT22;6349;50.904;6.136;2023-02-22T00:57:32;5.70;99.90
12568;DHT22;6349;50.904;6.136;2023-02-22T00:59:36;5.70;99.90
12568;DHT22;6349;50.904;6.136;2023-02-22T01:01:38;5.70;99.90
12568;DHT22;6349;50.904;6.136;2023-02-22T01:03:40;5.70;99.90
12568;DHT22;6349;50.904;6.136;2023-02-22T01:05:41;5.70;99.90
12568;DHT22;6349;50.904;6.136;2023-02-22T01:07:44;5.70;99.90
12568;DHT22;6349;50.904;6.136;2023-02-22T01:09:45;5.70;99.90
12568;DHT22;6349;50.904;6.136;2023-02-22T01:11:52;5.80;99.90
12568;DHT22;6349;50.904;6.136;2023-02-22T01:13:57;5.80;99.90
12568;DHT22;6349;50.904;6.136;2023-02-22T01:16:00;5.80;99.90
12568;DHT22;6349;50.904;6.136;2023-02-22T01:18:04;5.80;99.90
12568;DHT22;6349;50.904;6.136;2023-02-22T01:20:07;5.70;99.90
12568;DHT22;6349;50.904;6.136;2023-02-22T01:22:12;5.70;99.90
12568;DHT22;6349;50.904;6.136;2023-02-22T01:24:18;5.70;99.90
12568;DHT22;6349;50.904;6.136;2023-02-22T01:26:20;5.70;99.90
12568;DHT22;6349;50.904;6.136;2023-02-22T01:28:22;5.70;99.90
12568;DHT22;6349;50.904;6.136;2023-02-22T01:30:30;5.70;99.90
12568;DHT22;6349;50.904;6.136;2023-02-22T01:32:35;5.70;99.90
12568;DHT22;6349;50.904;6.136;2023-02-22T01:34:37;5.70;99.90
12568;DHT22;6349;50.904;6.136;2023-02-22T01:36:38;5.70;99.90
12568;DHT22;6349;50.904;6.136;2023-02-22T01:38:40;5.70;99.90
12568;DHT22;6349;50.904;6.136;2023-02-22T01:40:45;5.70;99.90
12568;DHT22;6349;50.904;6.136;2023-02-22T01:42:50;5.80;99.90
12568;DHT22;6349;50.904;6.136;2023-02-22T01:45:44;5.70;99.90
12568;DHT22;6349;50.904;6.136;2023-02-22T01:47:32;5.70;99.90
12568;DHT22;6349;50.904;6.136;2023-02-22T01:49:38;5.70;99.90
12568;DHT22;6349;50.904;6.136;2023-02-22T01:51:45;5.70;99.90
12568;DHT22;6349;50.904;6.136;2023-02-22T01:53:56;5.70;99.90
12568;DHT22;6349;50.904;6.136;2023-02-22T01:55:58;5.60;99.90
12568;DHT22;6349;50.904;6.136;2023-02-22T01:58:02;5.60;99.90
12568;DHT22;6349;50.904;6.136;2023-02-22T02:00:07;5.60;99.90
12568;DHT22;6349;50.904;6.136;2023-02-22T02:02:11;5.60;99.90
12568;DHT22;6349;50.904;6.136;2023-02-22T02:04:18;5.50;99.90
12568;DHT22;6349;50.904;6.136;2023-02-22T02:06:20;5.60;99.90
12568;DHT22;6349;50.904;6.136;2023-02-22T02:08:30;5.60;99.90
12568;DHT22;6349;50.904;6.136;2023-02-22T02:10:37;5.60;99.90
12568;DHT22;6349;50.904;6.136;2023-02-22T02:12:43;5.60;99.90
12568;DHT22;6349;50.904;6.136;2023-02-22T02:14:46;5.60;99.90
12568;DHT22;6349;50.904;6.136;2023-02-22T02:16:49;5.60;99.90
12568;DHT22;6349;50.904;6.136;2023-02-22T02:18:53;5.50;99.90
12568;DHT22;6349;50.904;6.136;2023-02-22T02:21:55;5.50;99.90
12568;DHT22;6349;50.904;6.136;2023-02-22T02:24:05;5.50;99.90
12568;DHT22;6349;50.904;6.136;2023-02-22T02:26:52;5.40;99.90
12568;DHT22;6349;50.904;6.136;2023-02-22T02:37:17;5.30;99.90
12568;DHT22;6349;50.904;6.136;2023-02-22T02:39:29;5.20;99.90
12568;DHT22;6349;50.904;6.136;2023-02-22T02:41:39;5.20;99.90
12568;DHT22;6349;50.904;6.136;2023-02-22T02:43:55;5.00;99.90
12568;DHT22;6349;50.904;6.136;2023-02-22T02:48:15;5.00;99.90
12568;DHT22;6349;50.904;6.136;2023-02-22T02:50:23;5.10;99.90
12568;DHT22;6349;50.904;6.136;2023-02-22T02:52:26;5.10;99.90
12568;DHT22;6349;50.904;6.136;2023-02-22T02:54:29;5.20;99.90
12568;DHT22;6349;50.904;6.136;2023-02-22T02:56:32;5.20;99.90
12568;DHT22;6349;50.904;6.136;2023-02-22T02:58:44;5.10;99.90
12568;DHT22;6349;50.904;6.136;2023-02-22T03:00:46;5.00;99.90
12568;DHT22;6349;50.904;6.136;2023-02-22T03:03:01;5.10;99.90
12568;DHT22;6349;50.904;6.136;2023-02-22T03:05:31;5.30;99.90
12568;DHT22;6349;50.904;6.136;2023-02-22T03:07:52;5.50;99.90
12568;DHT22;6349;50.904;6.136;2023-02-22T03:10:15;5.60;99.90
12568;DHT22;6349;50.904;6.136;2023-02-22T03:15:00;5.80;99.90
12568;DHT22;6349;50.904;6.136;2023-02-22T03:17:19;5.80;99.90
12568;DHT22;6349;50.904;6.136;2023-02-22T03:19:44;5.70;99.90
12568;DHT22;6349;50.904;6.136;2023-02-22T03:22:12;5.70;99.90
12568;DHT22;6349;50.904;6.136;2023-02-22T03:24:36;5.60;99.90
12568;DHT22;6349;50.904;6.136;2023-02-22T03:27:20;5.40;99.90
12568;DHT22;6349;50.904;6.136;2023-02-22T03:29:12;5.30;99.90
12568;DHT22;6349;50.904;6.136;2023-02-22T03:31:22;5.10;99.90
12568;DHT22;6349;50.904;6.136;2023-02-22T03:33:35;5.10;99.90
12568;DHT22;6349;50.904;6.136;2023-02-22T03:35:41;5.10;99.90
12568;DHT22;6349;50.904;6.136;2023-02-22T03:37:49;5.00;99.90
12568;DHT22;6349;50.904;6.136;2023-02-22T03:39:53;4.90;99.90
12568;DHT22;6349;50.904;6.136;2023-02-22T03:41:56;4.80;99.90
12568;DHT22;6349;50.904;6.136;2023-02-22T03:44:02;4.70;99.90
12568;DHT22;6349;50.904;6.136;2023-02-22T03:46:05;4.70;99.90
12568;DHT22;6349;50.904;6.136;2023-02-22T03:48:13;4.70;99.90
12568;DHT22;6349;50.904;6.136;2023-02-22T03:50:20;4.70;99.90
12568;DHT22;6349;50.904;6.136;2023-02-22T03:52:22;4.70;99.90
12568;DHT22;6349;50.904;6.136;2023-02-22T03:54:23;4.70;99.90
12568;DHT22;6349;50.904;6.136;2023-02-22T03:56:30;4.50;99.90
12568;DHT22;6349;50.904;6.136;2023-02-22T03:58:37;4.60;99.90
12568;DHT22;6349;50.904;6.136;2023-02-22T04:00:39;4.60;99.90
12568;DHT22;6349;50.904;6.136;2023-02-22T04:02:45;4.60;99.90
12568;DHT22;6349;50.904;6.136;2023-02-22T04:04:47;4.50;99.90
12568;DHT22;6349;50.904;6.136;2023-02-22T04:06:49;4.50;99.90
12568;DHT22;6349;50.904;6.136;2023-02-22T04:08:51;4.40;99.90
12568;DHT22;6349;50.904;6.136;2023-02-22T04:10:53;4.40;99.90
12568;DHT22;6349;50.904;6.136;2023-02-22T04:12:54;4.40;99.90
12568;DHT22;6349;50.904;6.136;2023-02-22T04:14:56;4.40;99.90
12568;DHT22;6349;50.904;6.136;2023-02-22T04:16:58;4.20;99.90
12568;DHT22;6349;50.904;6.136;2023-02-22T04:18:59;4.20;99.90
12568;DHT22;6349;50.904;6.136;2023-02-22T04:21:02;4.10;99.90
12568;DHT22;6349;50.904;6.136;2023-02-22T04:23:03;4.10;99.90
12568;DHT22;6349;50.904;6.136;2023-02-22T04:25:05;4.00;99.90
12568;DHT22;6349;50.904;6.136;2023-02-22T04:27:07;4.00;99.90
12568;DHT22;6349;50.904;6.136;2023-02-22T04:29:09;3.90;99.90
12568;DHT22;6349;50.904;6.136;2023-02-22T04:31:09;3.90;99.90
12568;DHT22;6349;50.904;6.136;2023-02-22T04:33:11;3.80;99.90
12568;DHT22;6349;50.904;6.136;2023-02-22T04:35:13;3.80;99.90
12568;DHT22;6349;50.904;6.136;2023-02-22T04:37:14;3.80;99.90
12568;DHT22;6349;50.904;6.136;2023-02-22T04:39:16;3.80;99.90
12568;DHT22;6349;50.904;6.136;2023-02-22T04:41:18;3.80;99.90
12568;DHT22;6349;50.904;6.136;2023-02-22T04:43:20;3.80;99.90
12568;DHT22;6349;50.904;6.136;2023-02-22T04:45:21;3.80;99.90
12568;DHT22;6349;50.904;6.136;2023-02-22T04:47:22;3.80;99.90
12568;DHT22;6349;50.904;6.136;2023-02-22T04:49:25;3.80;99.90
12568;DHT22;6349;50.904;6.136;2023-02-22T04:51:25;3.80;99.90
12568;DHT22;6349;50.904;6.136;2023-02-22T04:53:26;3.70;99.90
12568;DHT22;6349;50.904;6.136;2023-02-22T04:55:27;3.70;99.90
12568;DHT22;6349;50.904;6.136;2023-02-22T04:57:28;3.70;99.90
12568;DHT22;6349;50.904;6.136;2023-02-22T04:59:30;3.70;99.90
12568;DHT22;6349;50.904;6.136;2023-02-22T05:01:34;3.70;99.90
12568;DHT22;6349;50.904;6.136;2023-02-22T05:03:38;3.70;99.90
12568;DHT22;6349;50.904;6.136;2023-02-22T05:05:38;3.60;99.90
12568;DHT22;6349;50.904;6.136;2023-02-22T05:07:41;3.60;99.90
12568;DHT22;6349;50.904;6.136;2023-02-22T05:09:43;3.60;99.90
12568;DHT22;6349;50.904;6.136;2023-02-22T05:11:45;3.60;99.90
12568;DHT22;6349;50.904;6.136;2023-02-22T05:13:47;3.60;99.90
12568;DHT22;6349;50.904;6.136;2023-02-22T05:15:48;3.60;99.90
12568;DHT22;6349;50.904;6.136;2023-02-22T05:17:48;3.60;99.90
12568;DHT22;6349;50.904;6.136;2023-02-22T05:19:50;3.60;99.90
12568;DHT22;6349;50.904;6.136;2023-02-22T05:21:51;3.60;99.90
12568;DHT22;6349;50.904;6.136;2023-02-22T05:23:53;3.60;99.90
12568;DHT22;6349;50.904;6.136;2023-02-22T05:25:56;3.50;99.90
12568;DHT22;6349;50.904;6.136;2023-02-22T05:28:02;3.50;99.90
12568;DHT22;6349;50.904;6.136;2023-02-22T05:30:05;3.50;99.90
12568;DHT22;6349;50.904;6.136;2023-02-22T05:32:08;3.50;99.90
12568;DHT22;6349;50.904;6.136;2023-02-22T05:34:09;3.50;99.90
12568;DHT22;6349;50.904;6.136;2023-02-22T05:36:09;3.40;99.90
12568;DHT22;6349;50.904;6.136;2023-02-22T05:38:12;3.40;99.90
12568;DHT22;6349;50.904;6.136;2023-02-22T05:40:17;3.40;99.90
12568;DHT22;6349;50.904;6.136;2023-02-22T05:40:17;3.40;99.90
12568;DHT22;6349;50.904;6.136;2023-02-22T05:42:19;3.30;99.90
12568;DHT22;6349;50.904;6.136;2023-02-22T05:44:22;3.30;99.90
12568;DHT22;6349;50.904;6.136;2023-02-22T05:46:24;3.30;99.90
12568;DHT22;6349;50.904;6.136;2023-02-22T05:48:26;3.30;99.90
12568;DHT22;6349;50.904;6.136;2023-02-22T05:50:27;3.30;99.90
12568;DHT22;6349;50.904;6.136;2023-02-22T05:52:28;3.30;99.90
12568;DHT22;6349;50.904;6.136;2023-02-22T05:54:29;3.30;99.90
12568;DHT22;6349;50.904;6.136;2023-02-22T05:56:31;3.30;99.90
12568;DHT22;6349;50.904;6.136;2023-02-22T05:58:32;3.30;99.90
12568;DHT22;6349;50.904;6.136;2023-02-22T06:00:35;3.10;99.90
12568;DHT22;6349;50.904;6.136;2023-02-22T06:02:37;3.20;99.90
12568;DHT22;6349;50.904;6.136;2023-02-22T06:04:37;3.20;99.90
12568;DHT22;6349;50.904;6.136;2023-02-22T06:06:40;3.20;99.90
12568;DHT22;6349;50.904;6.136;2023-02-22T06:08:41;3.20;99.90
12568;DHT22;6349;50.904;6.136;2023-02-22T06:10:43;3.20;99.90
12568;DHT22;6349;50.904;6.136;2023-02-22T06:12:47;3.10;99.90
12568;DHT22;6349;50.904;6.136;2023-02-22T06:14:49;3.10;99.90
12568;DHT22;6349;50.904;6.136;2023-02-22T06:16:52;3.10;99.90
12568;DHT22;6349;50.904;6.136;2023-02-22T06:18:54;3.20;99.90
12568;DHT22;6349;50.904;6.136;2023-02-22T06:20:57;3.20;99.90
12568;DHT22;6349;50.904;6.136;2023-02-22T06:22:58;3.20;99.90
12568;DHT22;6349;50.904;6.136;2023-02-22T06:25:02;3.20;99.90
12568;DHT22;6349;50.904;6.136;2023-02-22T06:27:04;3.30;99.90
12568;DHT22;6349;50.904;6.136;2023-02-22T06:29:05;3.30;99.90
12568;DHT22;6349;50.904;6.136;2023-02-22T06:31:07;3.30;99.90
12568;DHT22;6349;50.904;6.136;2023-02-22T06:33:10;3.30;99.90
12568;DHT22;6349;50.904;6.136;2023-02-22T06:35:12;3.30;99.90
12568;DHT22;6349;50.904;6.136;2023-02-22T06:37:14;3.30;99.90
12568;DHT22;6349;50.904;6.136;2023-02-22T06:39:16;3.40;99.90
12568;DHT22;6349;50.904;6.136;2023-02-22T06:41:18;3.40;99.90
12568;DHT22;6349;50.904;6.136;2023-02-22T06:43:22;3.40;99.90
12568;DHT22;6349;50.904;6.136;2023-02-22T06:45:25;3.40;99.90
12568;DHT22;6349;50.904;6.136;2023-02-22T06:47:27;3.40;99.90
12568;DHT22;6349;50.904;6.136;2023-02-22T06:49:29;3.40;99.90
12568;DHT22;6349;50.904;6.136;2023-02-22T06:51:36;3.40;99.90
12568;DHT22;6349;50.904;6.136;2023-02-22T06:53:37;3.40;99.90
12568;DHT22;6349;50.904;6.136;2023-02-22T06:55:39;3.30;99.90
12568;DHT22;6349;50.904;6.136;2023-02-22T06:57:41;3.40;99.90
12568;DHT22;6349;50.904;6.136;2023-02-22T06:59:43;3.40;99.90
12568;DHT22;6349;50.904;6.136;2023-02-22T07:01:45;3.40;99.90
12568;DHT22;6349;50.904;6.136;2023-02-22T07:03:48;3.40;99.90
12568;DHT22;6349;50.904;6.136;2023-02-22T07:05:50;3.50;99.90
12568;DHT22;6349;50.904;6.136;2023-02-22T07:07:54;3.50;99.90
12568;DHT22;6349;50.904;6.136;2023-02-22T07:09:55;3.60;99.90
12568;DHT22;6349;50.904;6.136;2023-02-22T07:11:57;3.60;99.90
12568;DHT22;6349;50.904;6.136;2023-02-22T07:14:00;3.70;99.90
12568;DHT22;6349;50.904;6.136;2023-02-22T07:16:00;3.70;99.90
12568;DHT22;6349;50.904;6.136;2023-02-22T07:18:02;3.80;99.90
12568;DHT22;6349;50.904;6.136;2023-02-22T07:20:03;3.80;99.90
12568;DHT22;6349;50.904;6.136;2023-02-22T07:22:04;3.80;99.90
12568;DHT22;6349;50.904;6.136;2023-02-22T07:24:06;3.90;99.90
12568;DHT22;6349;50.904;6.136;2023-02-22T07:26:08;3.90;99.90
12568;DHT22;6349;50.904;6.136;2023-02-22T07:28:10;4.00;99.90
12568;DHT22;6349;50.904;6.136;2023-02-22T07:30:29;4.00;99.90
12568;DHT22;6349;50.904;6.136;2023-02-22T07:33:08;4.10;99.90
12568;DHT22;6349;50.904;6.136;2023-02-22T07:49:22;4.60;99.90
12568;DHT22;6349;50.904;6.136;2023-02-22T07:51:23;4.60;99.90
12568;DHT22;6349;50.904;6.136;2023-02-22T07:53:27;4.60;99.90
12568;DHT22;6349;50.904;6.136;2023-02-22T07:55:30;4.60;99.90
12568;DHT22;6349;50.904;6.136;2023-02-22T07:57:32;4.70;99.90
12568;DHT22;6349;50.904;6.136;2023-02-22T07:59:32;4.70;99.90
12568;DHT22;6349;50.904;6.136;2023-02-22T08:01:34;4.80;99.90
12568;DHT22;6349;50.904;6.136;2023-02-22T08:03:35;4.80;99.90
12568;DHT22;6349;50.904;6.136;2023-02-22T08:05:42;4.80;99.90
12568;DHT22;6349;50.904;6.136;2023-02-22T08:07:45;5.00;99.90
12568;DHT22;6349;50.904;6.136;2023-02-22T08:09:47;5.00;99.90
12568;DHT22;6349;50.904;6.136;2023-02-22T08:11:47;5.10;99.90
12568;DHT22;6349;50.904;6.136;2023-02-22T08:13:51;5.10;99.90
12568;DHT22;6349;50.904;6.136;2023-02-22T08:15:52;5.20;99.90
12568;DHT22;6349;50.904;6.136;2023-02-22T08:17:53;5.20;99.90
12568;DHT22;6349;50.904;6.136;2023-02-22T08:19:55;5.30;99.90
12568;DHT22;6349;50.904;6.136;2023-02-22T08:21:56;5.30;99.90
12568;DHT22;6349;50.904;6.136;2023-02-22T08:23:58;5.30;99.90
12568;DHT22;6349;50.904;6.136;2023-02-22T08:26:04;5.40;99.90
12568;DHT22;6349;50.904;6.136;2023-02-22T08:28:09;5.50;99.90
12568;DHT22;6349;50.904;6.136;2023-02-22T08:30:16;5.50;99.90
12568;DHT22;6349;50.904;6.136;2023-02-22T08:32:19;5.60;99.90
12568;DHT22;6349;50.904;6.136;2023-02-22T08:34:20;5.70;99.90
12568;DHT22;6349;50.904;6.136;2023-02-22T08:37:26;5.70;99.90
12568;DHT22;6349;50.904;6.136;2023-02-22T08:39:26;5.80;99.90
12568;DHT22;6349;50.904;6.136;2023-02-22T08:41:34;5.90;99.90
12568;DHT22;6349;50.904;6.136;2023-02-22T08:43:56;6.00;99.90
12568;DHT22;6349;50.904;6.136;2023-02-22T08:46:00;5.90;99.90
12568;DHT22;6349;50.904;6.136;2023-02-22T08:48:01;6.10;99.90
12568;DHT22;6349;50.904;6.136;2023-02-22T08:50:03;6.20;99.90
12568;DHT22;6349;50.904;6.136;2023-02-22T08:52:06;6.20;99.90
12568;DHT22;6349;50.904;6.136;2023-02-22T08:54:07;6.30;99.90
12568;DHT22;6349;50.904;6.136;2023-02-22T08:56:10;6.30;99.90
12568;DHT22;6349;50.904;6.136;2023-02-22T08:58:11;6.40;99.90
12568;DHT22;6349;50.904;6.136;2023-02-22T09:00:13;6.40;99.90
12568;DHT22;6349;50.904;6.136;2023-02-22T09:02:19;6.40;99.90
12568;DHT22;6349;50.904;6.136;2023-02-22T09:04:21;6.50;99.90
12568;DHT22;6349;50.904;6.136;2023-02-22T09:06:23;6.50;99.90
12568;DHT22;6349;50.904;6.136;2023-02-22T09:08:24;6.60;99.90
12568;DHT22;6349;50.904;6.136;2023-02-22T09:10:29;6.70;99.90
12568;DHT22;6349;50.904;6.136;2023-02-22T09:12:31;6.80;99.90
12568;DHT22;6349;50.904;6.136;2023-02-22T09:14:32;6.80;99.90
12568;DHT22;6349;50.904;6.136;2023-02-22T09:16:34;6.90;99.90
12568;DHT22;6349;50.904;6.136;2023-02-22T09:18:38;7.00;99.90
12568;DHT22;6349;50.904;6.136;2023-02-22T09:20:40;7.10;99.90
12568;DHT22;6349;50.904;6.136;2023-02-22T09:22:46;7.20;99.90
12568;DHT22;6349;50.904;6.136;2023-02-22T09:24:47;7.30;99.90
12568;DHT22;6349;50.904;6.136;2023-02-22T09:26:49;7.40;99.90
12568;DHT22;6349;50.904;6.136;2023-02-22T09:28:59;7.50;99.90
12568;DHT22;6349;50.904;6.136;2023-02-22T09:31:00;7.60;99.90
12568;DHT22;6349;50.904;6.136;2023-02-22T09:33:08;7.70;99.90
12568;DHT22;6349;50.904;6.136;2023-02-22T09:35:11;7.80;99.90
12568;DHT22;6349;50.904;6.136;2023-02-22T09:37:13;7.90;99.90
12568;DHT22;6349;50.904;6.136;2023-02-22T09:39:15;8.10;99.90
12568;DHT22;6349;50.904;6.136;2023-02-22T09:41:25;8.20;99.90
12568;DHT22;6349;50.904;6.136;2023-02-22T09:43:44;8.30;99.90
12568;DHT22;6349;50.904;6.136;2023-02-22T09:46:11;8.50;99.90
12568;DHT22;6349;50.904;6.136;2023-02-22T09:48:18;8.70;99.90
12568;DHT22;6349;50.904;6.136;2023-02-22T09:50:25;8.80;99.90
12568;DHT22;6349;50.904;6.136;2023-02-22T09:52:34;9.00;99.90
12568;DHT22;6349;50.904;6.136;2023-02-22T09:54:41;9.10;99.90
12568;DHT22;6349;50.904;6.136;2023-02-22T09:56:45;9.20;99.90
12568;DHT22;6349;50.904;6.136;2023-02-22T09:58:50;9.20;99.90
12568;DHT22;6349;50.904;6.136;2023-02-22T10:00:57;9.30;99.90
12568;DHT22;6349;50.904;6.136;2023-02-22T10:03:22;9.40;99.90
12568;DHT22;6349;50.904;6.136;2023-02-22T10:05:28;9.60;99.90
12568;DHT22;6349;50.904;6.136;2023-02-22T10:07:42;9.70;99.90
12568;DHT22;6349;50.904;6.136;2023-02-22T10:09:46;9.90;99.90
12568;DHT22;6349;50.904;6.136;2023-02-22T10:11:59;9.90;99.90
12568;DHT22;6349;50.904;6.136;2023-02-22T10:14:21;10.10;99.90
12568;DHT22;6349;50.904;6.136;2023-02-22T10:16:59;10.10;99.90
12568;DHT22;6349;50.904;6.136;2023-02-22T10:19:25;10.20;99.90
12568;DHT22;6349;50.904;6.136;2023-02-22T10:24:28;10.40;99.90
12568;DHT22;6349;50.904;6.136;2023-02-22T10:26:35;10.50;99.90
12568;DHT22;6349;50.904;6.136;2023-02-22T10:28:42;10.60;99.90
12568;DHT22;6349;50.904;6.136;2023-02-22T10:30:50;10.70;99.90
12568;DHT22;6349;50.904;6.136;2023-02-22T10:33:05;10.80;99.90
12568;DHT22;6349;50.904;6.136;2023-02-22T10:35:19;10.90;99.90
12568;DHT22;6349;50.904;6.136;2023-02-22T10:37:31;11.10;99.90
12568;DHT22;6349;50.904;6.136;2023-02-22T10:39:34;11.20;99.90
12568;DHT22;6349;50.904;6.136;2023-02-22T10:41:42;11.30;99.90
12568;DHT22;6349;50.904;6.136;2023-02-22T10:43:44;11.40;99.90
12568;DHT22;6349;50.904;6.136;2023-02-22T10:45:45;11.40;99.90
12568;DHT22;6349;50.904;6.136;2023-02-22T10:47:46;11.50;99.90
12568;DHT22;6349;50.904;6.136;2023-02-22T10:49:52;11.50;99.90
12568;DHT22;6349;50.904;6.136;2023-02-22T10:52:00;11.60;99.90
12568;DHT22;6349;50.904;6.136;2023-02-22T10:54:59;11.60;99.90
12568;DHT22;6349;50.904;6.136;2023-02-22T10:56:47;11.60;99.90
12568;DHT22;6349;50.904;6.136;2023-02-22T10:58:56;11.70;99.90
12568;DHT22;6349;50.904;6.136;2023-02-22T11:01:00;11.70;99.90
12568;DHT22;6349;50.904;6.136;2023-02-22T11:03:20;11.70;99.90
12568;DHT22;6349;50.904;6.136;2023-02-22T11:07:42;11.70;99.90
12568;DHT22;6349;50.904;6.136;2023-02-22T11:09:49;11.80;99.90
12568;DHT22;6349;50.904;6.136;2023-02-22T11:12:14;11.90;99.90
12568;DHT22;6349;50.904;6.136;2023-02-22T11:14:30;11.90;99.90
12568;DHT22;6349;50.904;6.136;2023-02-22T11:18:42;12.00;99.90
12568;DHT22;6349;50.904;6.136;2023-02-22T11:20:44;12.10;99.90
12568;DHT22;6349;50.904;6.136;2023-02-22T11:22:45;12.20;99.90
12568;DHT22;6349;50.904;6.136;2023-02-22T11:24:52;12.20;99.90
12568;DHT22;6349;50.904;6.136;2023-02-22T11:26:58;12.30;99.90
12568;DHT22;6349;50.904;6.136;2023-02-22T11:29:09;12.40;99.90
12568;DHT22;6349;50.904;6.136;2023-02-22T11:31:21;12.40;99.90
12568;DHT22;6349;50.904;6.136;2023-02-22T11:33:26;12.50;99.90
12568;DHT22;6349;50.904;6.136;2023-02-22T11:35:34;12.70;99.90
12568;DHT22;6349;50.904;6.136;2023-02-22T11:37:38;12.70;99.90
12568;DHT22;6349;50.904;6.136;2023-02-22T11:39:40;12.80;99.90
12568;DHT22;6349;50.904;6.136;2023-02-22T11:41:43;12.80;99.90
12568;DHT22;6349;50.904;6.136;2023-02-22T11:43:48;12.90;99.90
12568;DHT22;6349;50.904;6.136;2023-02-22T11:46:08;12.90;99.90
12568;DHT22;6349;50.904;6.136;2023-02-22T11:48:18;12.90;99.90
12568;DHT22;6349;50.904;6.136;2023-02-22T11:52:49;12.90;99.90
12568;DHT22;6349;50.904;6.136;2023-02-22T11:55:19;13.00;99.90
12568;DHT22;6349;50.904;6.136;2023-02-22T11:58:02;13.00;99.90
12568;DHT22;6349;50.904;6.136;2023-02-22T12:03:55;13.10;99.90
12568;DHT22;6349;50.904;6.136;2023-02-22T12:09:17;13.10;99.90
12568;DHT22;6349;50.904;6.136;2023-02-22T12:11:31;13.10;99.90
12568;DHT22;6349;50.904;6.136;2023-02-22T12:13:53;13.20;99.90
12568;DHT22;6349;50.904;6.136;2023-02-22T12:16:16;13.20;99.90
12568;DHT22;6349;50.904;6.136;2023-02-22T12:18:46;13.30;99.90
12568;DHT22;6349;50.904;6.136;2023-02-22T12:20:57;13.40;99.90
12568;DHT22;6349;50.904;6.136;2023-02-22T12:27:38;13.60;99.90
12568;DHT22;6349;50.904;6.136;2023-02-22T12:29:54;13.60;99.90
12568;DHT22;6349;50.904;6.136;2023-02-22T12:32:18;13.60;99.90
12568;DHT22;6349;50.904;6.136;2023-02-22T12:35:01;13.60;99.90
12568;DHT22;6349;50.904;6.136;2023-02-22T12:41:11;13.80;99.90
12568;DHT22;6349;50.904;6.136;2023-02-22T12:54:00;13.80;99.90
12568;DHT22;6349;50.904;6.136;2023-02-22T13:08:57;13.70;99.90
12568;DHT22;6349;50.904;6.136;2023-02-22T13:11:27;13.70;99.90
12568;DHT22;6349;50.904;6.136;2023-02-22T13:18:46;13.90;99.90
12568;DHT22;6349;50.904;6.136;2023-02-22T13:21:36;14.00;99.90
12568;DHT22;6349;50.904;6.136;2023-02-22T13:25:50;14.00;99.90
12568;DHT22;6349;50.904;6.136;2023-02-22T13:28:02;14.10;99.90
12568;DHT22;6349;50.904;6.136;2023-02-22T13:30:19;14.10;99.90
12568;DHT22;6349;50.904;6.136;2023-02-22T13:40:53;13.90;99.90
12568;DHT22;6349;50.904;6.136;2023-02-22T13:45:42;13.80;99.90
12568;DHT22;6349;50.904;6.136;2023-02-22T13:48:15;13.80;99.90
12568;DHT22;6349;50.904;6.136;2023-02-22T13:52:52;13.70;99.90
12568;DHT22;6349;50.904;6.136;2023-02-22T13:54:58;13.70;99.90
12568;DHT22;6349;50.904;6.136;2023-02-22T13:57:01;13.60;99.90
12568;DHT22;6349;50.904;6.136;2023-02-22T13:59:04;13.60;99.90
12568;DHT22;6349;50.904;6.136;2023-02-22T14:01:05;13.70;99.90
12568;DHT22;6349;50.904;6.136;2023-02-22T14:03:29;13.70;99.90
12568;DHT22;6349;50.904;6.136;2023-02-22T14:07:50;13.70;99.90
12568;DHT22;6349;50.904;6.136;2023-02-22T14:10:33;13.60;99.90
12568;DHT22;6349;50.904;6.136;2023-02-22T14:12:46;13.60;99.90
12568;DHT22;6349;50.904;6.136;2023-02-22T14:15:15;13.60;99.90
12568;DHT22;6349;50.904;6.136;2023-02-22T14:19:29;13.50;99.90
12568;DHT22;6349;50.904;6.136;2023-02-22T14:21:32;13.50;99.90
12568;DHT22;6349;50.904;6.136;2023-02-22T14:23:37;13.40;99.90
12568;DHT22;6349;50.904;6.136;2023-02-22T14:25:41;13.30;99.90
12568;DHT22;6349;50.904;6.136;2023-02-22T14:27:42;13.30;99.90
12568;DHT22;6349;50.904;6.136;2023-02-22T14:29:52;13.20;99.90
12568;DHT22;6349;50.904;6.136;2023-02-22T14:32:02;13.20;99.90
12568;DHT22;6349;50.904;6.136;2023-02-22T14:38:51;13.30;99.90
12568;DHT22;6349;50.904;6.136;2023-02-22T14:40:56;13.30;99.90
12568;DHT22;6349;50.904;6.136;2023-02-22T14:43:06;13.40;99.90
12568;DHT22;6349;50.904;6.136;2023-02-22T14:45:29;13.40;99.90
12568;DHT22;6349;50.904;6.136;2023-02-22T14:47:49;13.50;99.90
12568;DHT22;6349;50.904;6.136;2023-02-22T14:50:07;13.70;99.90
12568;DHT22;6349;50.904;6.136;2023-02-22T14:52:22;13.60;99.90
12568;DHT22;6349;50.904;6.136;2023-02-22T14:54:29;13.50;99.90
12568;DHT22;6349;50.904;6.136;2023-02-22T14:56:43;13.50;99.90
12568;DHT22;6349;50.904;6.136;2023-02-22T14:59:03;13.60;99.90
12568;DHT22;6349;50.904;6.136;2023-02-22T15:01:33;13.50;99.90
12568;DHT22;6349;50.904;6.136;2023-02-22T15:03:35;13.50;99.90
12568;DHT22;6349;50.904;6.136;2023-02-22T15:05:39;13.50;99.90
12568;DHT22;6349;50.904;6.136;2023-02-22T15:07:50;13.50;99.90
12568;DHT22;6349;50.904;6.136;2023-02-22T15:10:18;13.50;99.90
12568;DHT22;6349;50.904;6.136;2023-02-22T15:12:27;13.40;99.90
12568;DHT22;6349;50.904;6.136;2023-02-22T15:14:32;13.40;99.90
12568;DHT22;6349;50.904;6.136;2023-02-22T15:16:38;13.40;99.90
12568;DHT22;6349;50.904;6.136;2023-02-22T15:18:47;13.40;99.90
12568;DHT22;6349;50.904;6.136;2023-02-22T15:20:52;13.30;99.90
12568;DHT22;6349;50.904;6.136;2023-02-22T15:22:58;13.30;99.90
12568;DHT22;6349;50.904;6.136;2023-02-22T15:25:03;13.20;99.90
12568;DHT22;6349;50.904;6.136;2023-02-22T15:27:11;13.10;99.90
12568;DHT22;6349;50.904;6.136;2023-02-22T15:29:18;13.00;99.90